createdAt,value
2023-03-06T05:12:29.552Z,1.98
2023-03-06T05:15:33.067Z,1.96
2023-03-06T05:18:36.890Z,2.01
2023-03-06T05:21:39.729Z,2.10
2023-03-06T05:24:42.308Z,2.02
2023-03-06T05:27:45.146Z,2.01
2023-03-06T05:30:48.078Z,1.97
2023-03-06T05:33:51.068Z,1.98
2023-03-06T05:36:53.590Z,1.97
2023-03-06T05:39:56.718Z,1.97
2023-03-06T05:42:59.534Z,2.04
2023-03-06T05:46:06.798Z,1.89
2023-03-06T05:49:09.494Z,2.01
2023-03-06T05:52:13.300Z,1.92
2023-03-06T05:55:16.595Z,1.80
2023-03-06T05:58:22.832Z,1.96
2023-03-06T06:01:28.582Z,1.85
2023-03-06T06:04:31.532Z,1.86
2023-03-06T06:07:34.208Z,1.82
2023-03-06T06:10:38.799Z,1.93
2023-03-06T06:13:41.717Z,2.12
2023-03-06T06:16:44.855Z,1.91
2023-03-06T06:19:47.437Z,1.95
2023-03-06T06:22:50.512Z,1.97
2023-03-06T06:25:53.071Z,1.97
2023-03-06T06:28:55.877Z,1.95
2023-03-06T06:31:59.857Z,1.93
2023-03-06T06:35:02.938Z,2.05
2023-03-06T06:38:05.462Z,1.97
2023-03-06T06:44:30.886Z,2.23
2023-03-06T06:47:34.424Z,2.24
2023-03-06T06:50:38.185Z,2.23
2023-03-06T06:53:41.114Z,2.15
2023-03-06T06:56:43.688Z,2.45
2023-03-06T06:59:46.585Z,2.27
2023-03-06T07:02:51.239Z,2.14
2023-03-06T07:05:55.732Z,2.06
2023-03-06T07:08:58.318Z,2.05
2023-03-06T07:12:08.244Z,2.10
2023-03-06T07:15:14.169Z,2.19
2023-03-06T07:18:17.608Z,2.30
2023-03-06T07:21:20.304Z,2.34
2023-03-06T07:24:24.605Z,2.45
2023-03-06T07:27:27.289Z,2.59
2023-03-06T07:30:33.399Z,2.70
2023-03-06T07:33:36.150Z,2.64
2023-03-06T07:36:40.440Z,2.78
2023-03-06T07:39:43.171Z,2.74
2023-03-06T07:42:46.452Z,2.68
2023-03-06T07:45:56.303Z,2.68
2023-03-06T07:48:59.313Z,2.84
2023-03-06T07:52:02.253Z,2.94
2023-03-06T07:55:05.559Z,3.00
2023-03-06T07:58:08.199Z,3.17
2023-03-06T08:01:14.437Z,3.08
2023-03-06T08:04:17.428Z,3.09
2023-03-06T08:07:20.391Z,3.27
2023-03-06T08:10:23.407Z,3.03
2023-03-06T08:13:26.041Z,2.96
2023-03-06T08:16:30.472Z,3.20
2023-03-06T08:19:33.225Z,3.18
2023-03-06T08:22:37.103Z,3.05
2023-03-06T08:25:39.690Z,2.95
2023-03-06T08:28:43.117Z,2.98
2023-03-06T08:31:47.601Z,2.92
2023-03-06T08:34:51.177Z,3.03
2023-03-06T08:37:53.726Z,3.42
2023-03-06T08:40:56.665Z,3.52
2023-03-06T08:43:59.178Z,3.75
2023-03-06T08:47:02.702Z,3.71
2023-03-06T08:50:05.734Z,3.73
2023-03-06T08:53:08.737Z,3.95
2023-03-06T08:56:19.529Z,3.95
2023-03-06T08:59:22.485Z,4.28
2023-03-06T09:02:25.187Z,4.44
2023-03-06T09:05:29.418Z,4.38
2023-03-06T09:08:32.384Z,4.35
2023-03-06T09:11:35.918Z,4.38
2023-03-06T09:14:38.576Z,4.35
2023-03-06T09:17:41.435Z,4.27
2023-03-06T09:20:43.968Z,4.79
2023-03-06T09:23:46.857Z,5.48
2023-03-06T09:26:51.587Z,5.37
2023-03-06T09:29:55.907Z,5.21
2023-03-06T09:32:58.479Z,5.18
2023-03-06T09:36:02.688Z,5.24
2023-03-06T09:39:05.465Z,5.76
2023-03-06T09:42:15.139Z,6.24
2023-03-06T09:45:20.477Z,6.44
2023-03-06T09:48:41.352Z,6.63
2023-03-06T09:52:29.038Z,6.60
2023-03-06T09:55:40.329Z,6.74
2023-03-06T09:58:51.375Z,6.34
2023-03-06T10:01:58.961Z,6.58
2023-03-06T10:05:06.724Z,7.53
2023-03-06T10:08:23.890Z,7.91
2023-03-06T10:11:42.584Z,6.97
2023-03-06T10:14:52.993Z,6.72
2023-03-06T10:17:56.671Z,6.69
2023-03-06T10:21:18.466Z,6.44
2023-03-06T10:24:47.067Z,6.97
2023-03-06T10:27:55.761Z,7.52
2023-03-06T10:31:09.354Z,7.74
2023-03-06T10:34:14.629Z,7.43
2023-03-06T10:37:22.653Z,6.64
2023-03-06T10:40:35.332Z,6.58
2023-03-06T10:43:43.445Z,6.25
2023-03-06T10:46:49.334Z,6.48
2023-03-06T10:50:00.850Z,6.34
2023-03-06T10:53:06.382Z,6.29
2023-03-06T10:56:09.822Z,6.28
2023-03-06T10:59:19.191Z,5.87
2023-03-06T11:02:30.205Z,5.87
2023-03-06T11:05:32.942Z,5.89
2023-03-06T11:08:36.591Z,5.88
2023-03-06T11:11:39.268Z,5.97
2023-03-06T11:14:43.144Z,5.79
2023-03-06T11:18:05.927Z,5.57
2023-03-06T11:21:31.751Z,5.52
2023-03-06T11:24:39.402Z,5.22
2023-03-06T11:27:46.322Z,4.84
2023-03-06T11:30:54.566Z,5.01
2023-03-06T11:34:28.676Z,5.03
2023-03-06T11:37:46.623Z,5.24
2023-03-06T11:40:54.654Z,5.44
2023-03-06T11:44:12.088Z,6.37
2023-03-06T11:47:19.811Z,5.71
2023-03-06T11:50:33.591Z,5.68
2023-03-06T11:53:39.475Z,5.86
2023-03-06T11:57:11.477Z,5.53
2023-03-06T12:00:29.629Z,5.46
2023-03-06T12:03:58.755Z,5.53
2023-03-06T12:07:21.727Z,5.30
2023-03-06T12:10:41.176Z,5.47
2023-03-06T12:17:24.956Z,5.83
2023-03-06T12:20:46.674Z,5.63
2023-03-06T12:24:03.910Z,5.62
2023-03-06T12:27:27.368Z,5.54
2023-03-06T12:31:09.271Z,5.77
2023-03-06T12:34:36.399Z,5.70
2023-03-06T12:38:07.673Z,5.80
2023-03-06T12:41:44.481Z,5.43
2023-03-06T12:45:03.020Z,5.29
2023-03-06T12:48:18.629Z,5.31
2023-03-06T12:51:22.077Z,5.52
2023-03-06T12:54:28.690Z,5.57
2023-03-06T12:57:31.631Z,5.51
2023-03-06T13:00:34.312Z,5.37
2023-03-06T13:03:52.306Z,5.30
2023-03-06T13:06:57.916Z,5.35
2023-03-06T13:10:16.297Z,5.27
2023-03-06T13:13:29.578Z,5.15
2023-03-06T13:16:34.620Z,5.30
2023-03-06T13:19:37.661Z,5.48
2023-03-06T13:22:42.991Z,5.15
2023-03-06T13:25:49.068Z,5.56
2023-03-06T13:28:55.010Z,5.42
2023-03-06T13:32:00.520Z,5.42
2023-03-06T13:35:46.221Z,5.38
2023-03-06T13:38:48.713Z,5.49
2023-03-06T13:42:03.062Z,5.24
2023-03-06T13:45:23.885Z,5.17
2023-03-06T13:48:47.637Z,5.32
2023-03-06T13:51:53.240Z,5.36
2023-03-06T13:55:03.226Z,5.62
2023-03-06T13:58:56.921Z,5.60
2023-03-06T14:02:24.761Z,5.60
2023-03-06T14:05:49.418Z,5.43
2023-03-06T14:08:52.275Z,5.38
2023-03-06T14:12:19.062Z,5.23
2023-03-06T14:15:40.092Z,5.35
2023-03-06T14:18:48.519Z,5.24
2023-03-06T14:21:57.849Z,5.21
2023-03-06T14:25:05.620Z,5.09
2023-03-06T14:28:30.435Z,5.47
2023-03-06T14:31:41.140Z,5.10
2023-03-06T14:34:46.750Z,4.92
2023-03-06T14:37:53.282Z,4.93
2023-03-06T14:40:56.258Z,4.99
2023-03-06T14:44:19.732Z,4.78
2023-03-06T14:47:26.471Z,4.55
2023-03-06T14:50:33.237Z,4.49
2023-03-06T14:53:35.783Z,4.58
2023-03-06T14:56:46.012Z,4.63
2023-03-06T14:59:56.462Z,4.57
2023-03-06T15:02:59.869Z,4.42
2023-03-06T15:06:04.734Z,4.56
2023-03-06T15:09:16.231Z,4.55
2023-03-06T15:12:19.833Z,4.70
2023-03-06T15:15:29.967Z,4.45
2023-03-06T15:18:39.171Z,4.63
2023-03-06T15:21:47.780Z,4.39
2023-03-06T15:24:50.648Z,4.32
2023-03-06T15:28:02.077Z,4.21
2023-03-06T15:31:10.728Z,4.26
2023-03-06T15:34:17.323Z,4.24
2023-03-06T15:37:27.613Z,4.16
2023-03-06T15:40:31.938Z,4.29
2023-03-06T15:43:40.887Z,4.04
2023-03-06T15:46:43.767Z,4.09
2023-03-06T15:49:46.608Z,3.99
2023-03-06T15:52:50.239Z,3.96
2023-03-06T15:55:55.543Z,3.93
2023-03-06T15:58:59.814Z,3.80
2023-03-06T16:02:11.022Z,3.78
2023-03-06T16:05:17.594Z,3.74
2023-03-06T16:08:20.067Z,3.61
2023-03-06T16:11:35.325Z,3.56
2023-03-06T16:14:47.435Z,3.55
2023-03-06T16:17:50.253Z,3.54
2023-03-06T16:20:53.006Z,3.47
2023-03-06T16:23:55.928Z,3.36
2023-03-06T16:27:01.521Z,3.36
2023-03-06T16:30:05.292Z,3.42
2023-03-06T16:33:11.273Z,3.42
2023-03-06T16:36:19.638Z,3.34
2023-03-06T16:39:24.461Z,3.35
